Time;durP1;ratioP1;P1;durP2;ratioP2;P2;SDS_P1;SDS_P2;PMS_P1;PMS_P2;Temp;Humidity;BMP_temperature;BMP_pressure;BME280_temperature;BME280_humidity;BME280_pressure;Samples;Min_cycle;Max_cycle;Signal;HPM_P1;HPM_P2
2021/09/08 00:01:22;;;;;;;6.50;4.53;;;23.60;93.40;;;;;;5094628;28;20047;-49
2021/09/08 00:03:50;;;;;;;11.57;4.80;;;23.60;93.50;;;;;;5111659;28;20043;-47
2021/09/08 00:06:18;;;;;;;8.77;5.30;;;23.60;93.50;;;;;;5111549;28;20056;-46
2021/09/08 00:08:46;;;;;;;7.55;5.45;;;23.60;93.50;;;;;;5111322;28;20369;-47
2021/09/08 00:11:13;;;;;;;8.77;5.60;;;23.60;93.50;;;;;;5111272;28;20056;-47
2021/09/08 00:13:41;;;;;;;7.55;5.15;;;23.50;93.50;;;;;;5112557;28;20497;-47
2021/09/08 00:16:09;;;;;;;8.05;5.55;;;23.50;93.60;;;;;;5111429;28;20044;-46
2021/09/08 00:18:37;;;;;;;11.65;5.00;;;23.50;93.60;;;;;;5094549;28;20397;-47
2021/09/08 00:21:04;;;;;;;8.43;4.72;;;23.50;93.70;;;;;;5111071;28;20044;-47
2021/09/08 00:23:32;;;;;;;8.35;5.05;;;23.50;93.70;;;;;;5110130;28;20520;-51
2021/09/08 00:26:00;;;;;;;9.25;5.95;;;23.50;93.70;;;;;;5087603;28;20138;-52
2021/09/08 00:28:33;;;;;;;6.75;5.05;;;23.50;93.80;;;;;;5113065;28;20126;-49
2021/09/08 00:31:01;;;;;;;10.50;5.07;;;23.50;93.80;;;;;;5097503;28;20055;-50
2021/09/08 00:33:29;;;;;;;9.32;5.03;;;23.40;93.80;;;;;;5116102;28;20074;-51
2021/09/08 00:35:59;;;;;;;7.43;4.80;;;23.40;93.90;;;;;;5114931;28;20036;-51
2021/09/08 00:38:30;;;;;;;9.00;4.90;;;23.50;93.90;;;;;;5081818;28;20130;-50
2021/09/08 00:40:59;;;;;;;7.53;4.75;;;23.50;94.00;;;;;;5114948;28;20127;-49
2021/09/08 00:43:27;;;;;;;8.30;5.68;;;23.40;94.00;;;;;;5114795;28;20044;-47
2021/09/08 00:45:56;;;;;;;9.93;4.93;;;23.30;94.10;;;;;;5115817;28;20501;-47
2021/09/08 00:48:25;;;;;;;7.65;4.65;;;23.40;94.10;;;;;;5116057;28;20104;-48
2021/09/08 00:50:55;;;;;;;11.30;5.03;;;23.30;94.10;;;;;;5098049;28;20493;-48
2021/09/08 00:53:25;;;;;;;9.57;5.00;;;23.30;94.10;;;;;;5081257;28;20138;-49
2021/09/08 00:55:55;;;;;;;8.00;5.72;;;23.30;94.10;;;;;;5114562;28;20036;-47
2021/09/08 00:58:26;;;;;;;8.27;5.43;;;23.30;94.20;;;;;;5114436;28;20127;-49
2021/09/08 01:00:56;;;;;;;9.45;4.93;;;23.30;94.20;;;;;;5097308;28;20050;-49
2021/09/08 01:03:25;;;;;;;8.40;5.40;;;23.30;94.30;;;;;;5097724;28;20044;-49
2021/09/08 01:05:53;;;;;;;10.07;5.13;;;23.30;94.40;;;;;;5097467;28;20546;-47
2021/09/08 01:08:22;;;;;;;6.78;4.85;;;23.30;94.50;;;;;;5097829;28;20058;-50
2021/09/08 01:10:50;;;;;;;10.73;5.60;;;23.30;94.60;;;;;;5114168;28;20058;-45
2021/09/08 01:13:20;;;;;;;7.65;5.13;;;23.30;94.60;;;;;;5081284;28;20443;-45
2021/09/08 01:16:03;;;;;;;6.80;5.00;;;23.30;94.70;;;;;;5115298;28;20047;-46
2021/09/08 01:18:31;;;;;;;7.78;5.68;;;23.20;94.70;;;;;;5115229;28;20048;-45
2021/09/08 01:20:59;;;;;;;8.40;5.07;;;23.30;94.80;;;;;;5098077;28;20105;-46
2021/09/08 01:23:27;;;;;;;9.82;6.38;;;23.30;94.70;;;;;;5097990;28;20050;-46
2021/09/08 01:25:55;;;;;;;7.03;5.53;;;23.30;94.80;;;;;;5115103;28;20047;-45
2021/09/08 01:28:23;;;;;;;9.13;4.28;;;23.30;94.80;;;;;;5115035;28;20126;-45
2021/09/08 01:30:56;;;;;;;9.02;5.15;;;23.20;94.80;;;;;;5097884;28;20120;-45
2021/09/08 01:33:24;;;;;;;7.70;4.97;;;23.20;95.10;;;;;;5114924;28;20490;-49
2021/09/08 01:35:52;;;;;;;8.50;5.22;;;23.20;94.90;;;;;;5097933;28;20040;-47
2021/09/08 01:38:19;;;;;;;10.07;5.38;;;23.20;95.00;;;;;;5114639;28;20046;-48
2021/09/08 01:40:47;;;;;;;6.88;5.72;;;23.20;95.10;;;;;;5114458;28;20401;-46
2021/09/08 01:43:19;;;;;;;9.32;5.75;;;23.20;95.10;;;;;;5114688;28;20048;-46
2021/09/08 01:45:47;;;;;;;11.00;5.93;;;23.20;95.10;;;;;;5114604;28;20051;-46
2021/09/08 01:48:15;;;;;;;7.97;6.00;;;23.20;95.20;;;;;;5114432;28;20101;-45
2021/09/08 01:50:43;;;;;;;6.93;4.78;;;23.20;95.20;;;;;;5114391;28;20044;-45
2021/09/08 01:53:10;;;;;;;9.50;6.40;;;23.20;95.20;;;;;;5114434;28;20047;-46
2021/09/08 01:55:38;;;;;;;8.68;5.63;;;23.20;95.30;;;;;;5115625;28;20043;-46
2021/09/08 01:58:06;;;;;;;9.27;5.68;;;23.20;95.40;;;;;;5114537;28;20493;-46
2021/09/08 02:00:34;;;;;;;9.15;5.32;;;23.10;95.40;;;;;;5114245;28;20053;-45
2021/09/08 02:03:02;;;;;;;9.70;5.80;;;23.10;95.50;;;;;;5114249;28;20043;-45
2021/09/08 02:05:30;;;;;;;7.63;5.28;;;23.20;95.50;;;;;;5115824;28;20047;-48
2021/09/08 02:07:57;;;;;;;9.48;5.95;;;23.10;95.20;;;;;;5097288;28;20058;-45
2021/09/08 02:10:25;;;;;;;10.15;5.47;;;23.10;95.40;;;;;;5114023;28;20043;-45
2021/09/08 02:12:54;;;;;;;10.05;6.15;;;23.10;95.50;;;;;;5114076;28;20075;-45
2021/09/08 02:15:22;;;;;;;7.55;5.72;;;23.10;95.70;;;;;;5113919;28;20505;-46
2021/09/08 02:17:50;;;;;;;8.18;5.68;;;23.10;95.70;;;;;;5115138;28;20051;-45
2021/09/08 02:20:18;;;;;;;7.32;6.07;;;23.10;95.50;;;;;;5097203;28;20051;-45
2021/09/08 02:22:46;;;;;;;8.48;5.40;;;23.10;95.40;;;;;;5096933;28;20050;-45
2021/09/08 02:25:14;;;;;;;6.75;5.25;;;23.10;95.30;;;;;;5113847;28;20039;-46
2021/09/08 02:27:41;;;;;;;8.85;5.30;;;23.00;95.30;;;;;;5114885;28;20051;-45
2021/09/08 02:30:10;;;;;;;9.52;5.80;;;23.00;95.30;;;;;;5113681;28;20043;-45
2021/09/08 02:32:38;;;;;;;9.20;4.93;;;23.00;95.30;;;;;;5096785;28;20052;-48
2021/09/08 02:35:06;;;;;;;8.95;5.93;;;23.00;95.40;;;;;;5113682;28;20048;-46
2021/09/08 02:37:34;;;;;;;8.57;5.72;;;23.00;95.60;;;;;;5113513;28;20509;-45
2021/09/08 02:40:02;;;;;;;11.93;5.93;;;22.90;95.80;;;;;;5113384;28;20382;-46
2021/09/08 02:42:30;;;;;;;6.82;5.35;;;22.90;95.90;;;;;;5096175;28;20138;-46
2021/09/08 02:44:57;;;;;;;8.18;5.65;;;22.90;95.90;;;;;;5113778;28;20533;-48
2021/09/08 02:47:25;;;;;;;8.05;5.63;;;22.90;96.00;;;;;;5113460;28;20039;-46
2021/09/08 02:49:52;;;;;;;8.45;5.32;;;22.90;95.90;;;;;;5113354;28;20130;-46
2021/09/08 02:52:20;;;;;;;8.90;6.15;;;22.90;95.90;;;;;;5112597;28;20044;-46
2021/09/08 02:54:47;;;;;;;10.73;6.00;;;22.90;95.90;;;;;;5114486;28;20055;-47
2021/09/08 02:57:15;;;;;;;8.85;4.70;;;22.90;95.90;;;;;;5113050;28;20061;-48
2021/09/08 02:59:43;;;;;;;9.00;5.22;;;22.90;96.00;;;;;;5096502;28;20079;-49
2021/09/08 03:02:10;;;;;;;11.35;5.88;;;22.80;96.10;;;;;;5113166;28;20096;-46
2021/09/08 03:04:38;;;;;;;7.93;5.82;;;22.80;96.10;;;;;;5113087;28;20040;-47
2021/09/08 03:07:05;;;;;;;7.80;5.95;;;22.80;96.20;;;;;;5096181;28;20143;-49
2021/09/08 03:09:33;;;;;;;9.32;5.90;;;22.90;96.20;;;;;;5112757;28;20069;-49
2021/09/08 03:12:01;;;;;;;10.90;5.90;;;22.80;96.20;;;;;;5112792;28;20139;-45
2021/09/08 03:14:30;;;;;;;9.82;6.15;;;22.80;96.20;;;;;;5114131;28;20100;-46
2021/09/08 03:16:57;;;;;;;9.35;5.85;;;22.80;96.20;;;;;;5113126;28;20177;-46
2021/09/08 03:19:25;;;;;;;7.65;5.53;;;22.80;96.20;;;;;;5113051;28;20042;-51
2021/09/08 03:21:52;;;;;;;8.40;5.80;;;22.80;96.20;;;;;;5096006;28;20092;-49
2021/09/08 03:24:20;;;;;;;7.25;5.22;;;22.80;96.30;;;;;;5112672;28;20480;-46
2021/09/08 03:26:48;;;;;;;14.05;6.35;;;22.80;96.30;;;;;;5112696;28;20071;-50
2021/09/08 03:29:15;;;;;;;9.00;5.10;;;22.80;96.40;;;;;;5114236;28;20058;-46
2021/09/08 03:31:43;;;;;;;6.63;5.50;;;22.80;96.40;;;;;;5112871;28;20075;-46
2021/09/08 03:34:11;;;;;;;10.02;6.70;;;22.80;96.40;;;;;;5112843;28;20051;-45
2021/09/08 03:36:38;;;;;;;9.00;5.15;;;22.80;96.40;;;;;;5113924;28;20513;-46
2021/09/08 03:39:06;;;;;;;7.78;5.25;;;22.80;96.40;;;;;;5112650;28;20047;-45
2021/09/08 03:41:34;;;;;;;9.50;5.57;;;22.80;96.30;;;;;;5112719;28;20078;-45
2021/09/08 03:44:01;;;;;;;7.57;5.70;;;22.80;96.30;;;;;;5113954;28;20047;-45
2021/09/08 03:46:29;;;;;;;7.57;5.55;;;22.80;96.30;;;;;;5095869;28;20067;-46
2021/09/08 03:48:57;;;;;;;9.45;7.28;;;22.80;96.20;;;;;;5096041;28;20160;-49
2021/09/08 03:51:25;;;;;;;8.25;5.38;;;22.80;96.30;;;;;;5112424;28;20044;-45
2021/09/08 03:53:52;;;;;;;7.50;5.13;;;22.80;96.20;;;;;;5113912;28;20052;-45
2021/09/08 03:56:20;;;;;;;8.25;5.60;;;22.80;96.20;;;;;;5112536;28;20070;-45
2021/09/08 03:58:47;;;;;;;8.48;5.53;;;22.80;96.10;;;;;;5112782;28;20044;-45
2021/09/08 04:01:15;;;;;;;9.70;6.20;;;22.80;96.10;;;;;;5112387;28;20056;-45
2021/09/08 04:03:43;;;;;;;7.50;5.60;;;22.70;96.10;;;;;;5096757;28;20054;-46
2021/09/08 04:06:12;;;;;;;9.48;6.00;;;22.70;96.10;;;;;;5116517;28;20051;-46
2021/09/08 04:08:40;;;;;;;14.73;6.20;;;22.60;96.00;;;;;;5116336;28;20048;-46
2021/09/08 04:11:08;;;;;;;8.00;5.28;;;22.60;96.10;;;;;;5116328;28;20105;-46
2021/09/08 04:13:38;;;;;;;12.85;6.05;;;22.60;96.10;;;;;;5099383;28;20051;-52
2021/09/08 04:16:06;;;;;;;10.30;5.80;;;22.60;96.20;;;;;;5099518;28;20402;-45
2021/09/08 04:18:34;;;;;;;8.77;5.60;;;22.60;96.20;;;;;;5117327;28;20047;-47
2021/09/08 04:21:03;;;;;;;8.35;5.50;;;22.50;96.20;;;;;;5116423;28;20035;-46
2021/09/08 04:23:31;;;;;;;8.10;6.25;;;22.50;96.20;;;;;;5099444;28;20039;-45
2021/09/08 04:25:58;;;;;;;6.15;4.68;;;22.60;96.20;;;;;;5099298;28;20048;-46
2021/09/08 04:28:26;;;;;;;8.63;5.80;;;22.60;96.10;;;;;;5116236;28;20436;-46
2021/09/08 04:30:53;;;;;;;12.07;6.30;;;22.60;96.10;;;;;;5115985;28;20039;-46
2021/09/08 04:33:21;;;;;;;11.75;6.03;;;22.60;96.10;;;;;;5117474;28;20055;-49
2021/09/08 04:35:49;;;;;;;8.38;5.97;;;22.60;96.10;;;;;;5099142;28;20047;-50
2021/09/08 04:38:17;;;;;;;11.10;6.25;;;22.60;96.10;;;;;;5099096;28;20104;-46
2021/09/08 04:40:45;;;;;;;9.77;5.57;;;22.60;96.00;;;;;;5115862;28;20035;-46
2021/09/08 04:43:13;;;;;;;13.38;6.10;;;22.60;96.00;;;;;;5115641;28;20055;-49
2021/09/08 04:45:40;;;;;;;8.85;6.80;;;22.60;95.90;;;;;;5115592;28;20044;-46
2021/09/08 04:48:08;;;;;;;8.82;6.45;;;22.60;95.90;;;;;;5115634;28;20055;-48
2021/09/08 04:50:36;;;;;;;6.97;5.25;;;22.70;95.90;;;;;;5099563;28;20097;-49
2021/09/08 04:53:04;;;;;;;7.60;5.80;;;22.70;95.80;;;;;;5093260;28;20040;-45
2021/09/08 04:55:31;;;;;;;12.00;6.57;;;22.80;95.80;;;;;;5097031;28;20054;-47
2021/09/08 04:57:59;;;;;;;9.52;5.57;;;22.80;95.60;;;;;;5087226;28;20050;-49
2021/09/08 05:00:27;;;;;;;9.20;5.50;;;22.80;95.50;;;;;;5095698;28;20036;-51
2021/09/08 05:02:55;;;;;;;10.43;6.32;;;22.80;95.50;;;;;;5092858;28;20048;-49
2021/09/08 05:05:23;;;;;;;10.38;6.40;;;22.80;95.40;;;;;;5099463;28;20473;-56
2021/09/08 05:07:51;;;;;;;9.40;6.05;;;22.80;95.50;;;;;;5092799;28;20401;-49
2021/09/08 05:10:18;;;;;;;7.50;5.35;;;22.90;95.60;;;;;;5095923;28;20050;-51
2021/09/08 05:12:46;;;;;;;12.98;6.05;;;22.90;95.50;;;;;;5074614;28;20045;-50
2021/09/08 05:15:14;;;;;;;7.90;5.70;;;23.00;95.40;;;;;;5093517;28;20423;-47
2021/09/08 05:17:44;;;;;;;11.48;6.35;;;23.10;95.30;;;;;;5092322;28;20081;-51
2021/09/08 05:20:12;;;;;;;9.10;5.97;;;23.20;95.10;;;;;;5095380;28;20059;-50
2021/09/08 05:22:39;;;;;;;10.00;6.15;;;23.30;95.00;;;;;;5086793;28;20040;-61
2021/09/08 05:25:08;;;;;;;11.05;6.25;;;23.40;94.90;;;;;;5098522;28;20059;-49
2021/09/08 05:27:36;;;;;;;10.35;6.75;;;23.60;94.70;;;;;;5088393;28;20090;-49
2021/09/08 05:30:05;;;;;;;13.75;5.97;;;23.70;94.50;;;;;;5089119;28;20035;-48
2021/09/08 05:32:32;;;;;;;9.77;5.82;;;23.90;94.40;;;;;;5089062;28;20481;-50
2021/09/08 05:35:00;;;;;;;8.13;5.43;;;24.10;94.20;;;;;;5103576;27;20102;-48
2021/09/08 05:37:28;;;;;;;11.35;5.97;;;24.30;94.00;;;;;;5075073;28;20162;-52
2021/09/08 05:39:55;;;;;;;8.75;5.75;;;24.50;93.80;;;;;;5094914;28;20032;-47
2021/09/08 05:42:23;;;;;;;10.35;7.15;;;24.70;93.50;;;;;;5091030;28;20036;-49
2021/09/08 05:44:50;;;;;;;10.48;6.13;;;24.80;93.30;;;;;;5097870;28;20044;-46
2021/09/08 05:47:19;;;;;;;7.40;5.43;;;25.00;93.00;;;;;;5093384;28;20054;-47
2021/09/08 05:49:47;;;;;;;8.30;5.35;;;25.10;92.90;;;;;;5089421;28;20071;-46
2021/09/08 05:52:15;;;;;;;10.13;6.35;;;25.30;92.80;;;;;;5086979;28;20088;-48
2021/09/08 05:54:42;;;;;;;10.40;6.05;;;25.40;92.80;;;;;;5097972;28;20036;-46
2021/09/08 05:57:10;;;;;;;9.82;6.80;;;25.50;92.70;;;;;;5104064;28;20063;-46
2021/09/08 05:59:38;;;;;;;9.25;5.55;;;25.60;92.80;;;;;;5111623;28;20397;-46
2021/09/08 06:02:06;;;;;;;9.50;5.45;;;25.70;92.60;;;;;;5107795;28;20043;-50
2021/09/08 06:04:33;;;;;;;8.38;4.97;;;25.80;92.40;;;;;;5113931;28;20046;-49
2021/09/08 06:07:01;;;;;;;9.98;5.82;;;25.90;92.20;;;;;;5097421;28;20131;-49
2021/09/08 06:09:30;;;;;;;10.70;5.38;;;26.10;92.10;;;;;;5097318;28;20358;-46
2021/09/08 06:11:58;;;;;;;8.85;5.88;;;26.30;91.80;;;;;;5114175;28;20050;-46
2021/09/08 06:14:26;;;;;;;7.55;5.85;;;26.40;91.60;;;;;;4952887;28;20634;-51
2021/09/08 06:16:54;;;;;;;9.48;5.57;;;26.50;90.90;;;;;;5092007;28;20040;-52
2021/09/08 06:19:21;;;;;;;10.07;5.38;;;26.60;90.50;;;;;;5093012;28;20046;-49
2021/09/08 06:21:49;;;;;;;6.35;4.85;;;26.70;90.50;;;;;;5094450;28;20047;-52
2021/09/08 06:24:18;;;;;;;7.65;4.95;;;26.90;90.10;;;;;;5093449;28;20517;-48
2021/09/08 06:26:45;;;;;;;6.68;4.75;;;27.00;89.90;;;;;;5075339;28;20040;-52
2021/09/08 06:29:13;;;;;;;7.15;4.47;;;27.00;89.00;;;;;;5088750;28;20044;-51
2021/09/08 06:31:41;;;;;;;10.05;4.85;;;27.10;88.10;;;;;;5092645;28;20067;-48
2021/09/08 06:34:10;;;;;;;8.10;4.25;;;27.20;87.80;;;;;;5092555;28;20048;-47
2021/09/08 06:36:38;;;;;;;8.95;5.28;;;27.20;86.90;;;;;;5093801;28;20044;-49
2021/09/08 06:39:06;;;;;;;8.70;4.38;;;27.30;86.60;;;;;;5075950;28;20482;-51
2021/09/08 06:41:34;;;;;;;7.93;4.85;;;27.40;86.50;;;;;;5092545;28;20047;-50
2021/09/08 06:44:01;;;;;;;16.58;7.97;;;27.60;85.40;;;;;;5075484;28;20048;-50
2021/09/08 06:46:29;;;;;;;10.35;6.13;;;27.50;82.70;;;;;;5075349;28;20082;-51
2021/09/08 06:48:57;;;;;;;6.38;3.70;;;27.50;82.50;;;;;;5092793;28;20057;-47
2021/09/08 06:51:25;;;;;;;5.72;3.58;;;27.50;81.80;;;;;;5092839;28;20040;-49
2021/09/08 06:53:52;;;;;;;6.25;3.70;;;27.60;81.80;;;;;;5092650;28;20055;-48
2021/09/08 06:56:20;;;;;;;6.22;3.03;;;27.80;81.10;;;;;;5094316;28;20452;-51
2021/09/08 06:58:49;;;;;;;4.80;3.30;;;27.90;79.30;;;;;;5092768;28;20134;-48
2021/09/08 07:01:16;;;;;;;8.32;3.33;;;28.10;78.90;;;;;;5092978;28;20052;-47
2021/09/08 07:03:44;;;;;;;5.05;3.03;;;28.20;78.50;;;;;;5076345;28;20043;-49
2021/09/08 07:06:12;;;;;;;8.05;3.45;;;28.30;77.70;;;;;;5094083;28;20058;-49
2021/09/08 07:08:40;;;;;;;4.30;3.13;;;28.40;77.60;;;;;;5092840;28;20139;-49
2021/09/08 07:11:07;;;;;;;6.47;3.80;;;28.40;77.30;;;;;;5094115;28;20051;-48
2021/09/08 07:13:35;;;;;;;6.97;3.88;;;28.50;76.40;;;;;;5092424;28;20048;-49
2021/09/08 07:16:03;;;;;;;7.15;3.60;;;28.60;76.30;;;;;;5078946;28;20047;-48
2021/09/08 07:18:31;;;;;;;4.35;2.72;;;28.70;76.10;;;;;;5108910;28;20036;-48
2021/09/08 07:20:59;;;;;;;3.38;2.47;;;28.80;75.90;;;;;;5108302;28;20050;-47
2021/09/08 07:23:26;;;;;;;4.03;2.85;;;28.80;75.50;;;;;;5108120;28;20043;-50
2021/09/08 07:25:54;;;;;;;9.82;3.22;;;28.90;75.00;;;;;;5104404;28;20044;-50
2021/09/08 07:28:23;;;;;;;5.60;3.05;;;28.90;74.00;;;;;;5110524;28;20036;-52
2021/09/08 07:30:54;;;;;;;4.65;2.90;;;29.00;73.10;;;;;;5112678;28;20101;-49
2021/09/08 07:33:24;;;;;;;5.05;3.10;;;29.10;72.60;;;;;;5114017;28;20068;-47
2021/09/08 07:35:51;;;;;;;4.22;2.60;;;29.20;72.20;;;;;;5095721;28;20040;-47
2021/09/08 07:38:20;;;;;;;4.43;2.38;;;29.30;71.40;;;;;;5112458;28;20559;-51
2021/09/08 07:40:49;;;;;;;6.85;3.00;;;29.10;71.10;;;;;;5103509;28;20044;-48
2021/09/08 07:43:18;;;;;;;4.70;2.80;;;29.20;71.40;;;;;;5116895;28;20047;-49
2021/09/08 07:45:48;;;;;;;4.07;2.47;;;29.20;71.40;;;;;;5098645;28;20513;-49
2021/09/08 07:48:18;;;;;;;6.07;2.85;;;29.40;70.70;;;;;;5083338;28;20135;-49
2021/09/08 07:50:47;;;;;;;5.38;2.65;;;29.40;70.60;;;;;;5081448;28;20039;-48
2021/09/08 07:53:15;;;;;;;5.50;2.30;;;29.40;70.00;;;;;;5106917;28;20397;-46
2021/09/08 07:55:42;;;;;;;5.25;3.10;;;29.30;69.00;;;;;;5108130;28;20092;-47
2021/09/08 07:58:10;;;;;;;3.22;2.20;;;29.30;69.00;;;;;;5114917;28;20141;-47
2021/09/08 08:00:38;;;;;;;6.40;2.58;;;29.20;68.90;;;;;;5115298;28;20059;-50
2021/09/08 08:03:06;;;;;;;3.72;2.42;;;29.40;68.50;;;;;;5117625;28;20040;-51
2021/09/08 08:05:34;;;;;;;5.25;2.40;;;29.10;67.60;;;;;;5099480;28;20052;-46
2021/09/08 08:08:02;;;;;;;2.92;1.90;;;29.00;67.70;;;;;;5115867;28;20442;-51
2021/09/08 08:10:31;;;;;;;4.38;2.00;;;29.10;67.30;;;;;;5117304;27;20508;-47
2021/09/08 08:12:58;;;;;;;7.57;2.75;;;29.30;67.90;;;;;;5099471;28;20051;-51
2021/09/08 08:15:26;;;;;;;3.47;2.20;;;29.10;67.50;;;;;;5117441;28;20054;-50
2021/09/08 08:17:54;;;;;;;3.33;2.30;;;29.00;66.60;;;;;;5097466;28;20048;-48
2021/09/08 08:20:22;;;;;;;3.88;2.38;;;28.70;65.70;;;;;;5116365;28;20132;-46
2021/09/08 08:22:50;;;;;;;4.13;2.25;;;28.50;66.20;;;;;;5114542;28;20042;-49
2021/09/08 08:25:27;;;;;;;2.88;2.10;;;28.40;67.80;;;;;;5107083;28;20051;-48
2021/09/08 08:27:57;;;;;;;4.95;2.30;;;28.40;67.20;;;;;;5111653;28;20040;-49
2021/09/08 08:30:25;;;;;;;4.70;2.53;;;28.40;67.20;;;;;;5098460;28;20441;-47
2021/09/08 08:32:53;;;;;;;3.47;2.33;;;28.40;67.50;;;;;;5115751;28;20051;-47
2021/09/08 08:35:20;;;;;;;4.30;2.80;;;28.50;68.20;;;;;;5115779;28;20040;-49
2021/09/08 08:37:51;;;;;;;3.47;2.38;;;28.40;66.20;;;;;;5115272;28;20101;-53
2021/09/08 08:40:21;;;;;;;4.07;2.22;;;28.40;65.40;;;;;;5115868;28;20105;-51
2021/09/08 08:42:49;;;;;;;3.42;2.38;;;28.40;65.50;;;;;;5116485;28;20044;-49
2021/09/08 08:45:17;;;;;;;4.03;1.98;;;28.40;66.50;;;;;;5114789;28;20501;-50
2021/09/08 08:47:45;;;;;;;3.17;2.35;;;28.20;69.10;;;;;;5099002;28;20089;-51
2021/09/08 08:50:16;;;;;;;2.67;1.95;;;28.00;69.90;;;;;;5114796;28;20039;-47
2021/09/08 08:52:44;;;;;;;3.13;2.00;;;28.10;70.10;;;;;;5115588;28;20366;-50
2021/09/08 08:55:12;;;;;;;9.38;2.30;;;27.80;70.60;;;;;;5115618;28;20047;-52
2021/09/08 08:57:40;;;;;;;6.15;2.42;;;27.80;70.90;;;;;;5115259;28;20036;-50
2021/09/08 09:00:08;;;;;;;4.07;1.90;;;27.80;70.40;;;;;;5099040;28;20048;-48
2021/09/08 09:02:36;;;;;;;4.20;2.45;;;27.80;69.30;;;;;;5098445;28;20054;-48
2021/09/08 09:05:09;;;;;;;4.20;2.58;;;28.00;69.20;;;;;;5108692;28;20516;-48
2021/09/08 09:07:43;;;;;;;3.50;2.45;;;28.00;69.70;;;;;;5058005;28;20562;-51
2021/09/08 09:10:14;;;;;;;3.30;2.20;;;28.30;68.20;;;;;;5075536;28;20048;-63
2021/09/08 09:12:45;;;;;;;4.15;2.45;;;28.60;66.40;;;;;;5096153;28;20052;-49
2021/09/08 09:15:19;;;;;;;3.30;2.30;;;28.80;66.20;;;;;;5093250;28;20063;-64
2021/09/08 09:17:50;;;;;;;4.22;2.72;;;28.90;65.40;;;;;;5098425;28;20112;-52
2021/09/08 09:20:32;;;;;;;3.95;2.30;;;28.90;65.90;;;;;;5108049;28;20504;-47
2021/09/08 09:23:09;;;;;;;4.00;2.70;;;28.90;65.70;;;;;;5088180;28;20062;-49
2021/09/08 09:25:38;;;;;;;4.43;2.30;;;29.00;66.00;;;;;;5071666;28;20040;-48
2021/09/08 09:28:08;;;;;;;4.25;3.10;;;29.10;65.60;;;;;;5115831;28;20044;-49
2021/09/08 09:30:41;;;;;;;5.32;2.85;;;29.10;64.90;;;;;;5097800;28;20130;-47
2021/09/08 09:33:30;;;;;;;3.78;2.50;;;29.00;64.40;;;;;;5101221;28;20064;-47
2021/09/08 09:36:22;;;;;;;5.43;2.75;;;28.80;64.00;;;;;;5114763;28;20374;-47
2021/09/08 09:38:52;;;;;;;4.20;2.22;;;28.90;64.40;;;;;;5113474;28;20088;-48
2021/09/08 09:41:35;;;;;;;3.05;2.22;;;29.00;64.00;;;;;;5113576;28;20040;-47
2021/09/08 09:44:11;;;;;;;4.28;2.40;;;29.30;64.80;;;;;;5111509;28;20127;-49
2021/09/08 09:46:44;;;;;;;3.35;2.25;;;29.20;63.00;;;;;;5105592;28;20075;-52
2021/09/08 09:49:13;;;;;;;3.35;2.15;;;29.20;63.40;;;;;;5093294;28;20047;-52
2021/09/08 09:51:42;;;;;;;2.58;2.13;;;29.10;63.50;;;;;;5104513;28;20450;-52
2021/09/08 09:54:09;;;;;;;4.53;2.10;;;29.10;62.90;;;;;;5113509;28;20053;-47
2021/09/08 09:56:38;;;;;;;6.53;2.45;;;29.00;63.70;;;;;;5095679;28;20039;-49
2021/09/08 09:59:06;;;;;;;6.38;2.17;;;28.80;63.60;;;;;;5076994;28;20050;-50
2021/09/08 10:01:34;;;;;;;5.47;2.30;;;28.70;64.30;;;;;;5076915;28;20048;-49
2021/09/08 10:04:02;;;;;;;3.78;2.58;;;28.90;64.10;;;;;;5076942;28;20048;-47
2021/09/08 10:06:30;;;;;;;3.30;1.75;;;29.00;64.80;;;;;;5060223;28;20093;-48
2021/09/08 10:08:59;;;;;;;4.57;2.00;;;29.30;64.60;;;;;;5077080;28;20139;-48
2021/09/08 10:11:36;;;;;;;4.70;2.13;;;29.10;63.90;;;;;;5076746;28;20402;-49
2021/09/08 10:14:07;;;;;;;4.35;2.00;;;28.50;64.40;;;;;;5076862;28;20044;-49
2021/09/08 10:16:36;;;;;;;3.85;2.15;;;28.40;65.20;;;;;;5100833;28;20043;-47
2021/09/08 10:19:07;;;;;;;4.28;2.03;;;28.30;64.80;;;;;;5094693;28;20510;-48
2021/09/08 10:21:36;;;;;;;4.57;2.60;;;28.50;65.10;;;;;;5092776;28;20044;-47
2021/09/08 10:24:05;;;;;;;3.60;2.10;;;28.60;64.90;;;;;;5112787;28;20050;-50
2021/09/08 10:26:34;;;;;;;4.15;2.53;;;28.90;64.30;;;;;;5114944;28;20047;-47
2021/09/08 10:29:08;;;;;;;4.25;2.85;;;29.00;62.30;;;;;;5096732;28;20048;-47
2021/09/08 10:31:42;;;;;;;2.78;1.90;;;29.10;61.80;;;;;;5112813;28;20043;-51
2021/09/08 10:34:14;;;;;;;3.03;1.92;;;29.20;62.00;;;;;;5113740;28;20043;-47
2021/09/08 10:36:44;;;;;;;3.65;2.17;;;29.40;61.30;;;;;;5114029;28;20050;-47
2021/09/08 10:39:13;;;;;;;3.80;2.25;;;29.50;62.20;;;;;;5096637;28;20493;-46
2021/09/08 10:41:49;;;;;;;3.38;2.03;;;29.70;62.20;;;;;;5113471;28;20051;-49
2021/09/08 10:44:39;;;;;;;8.48;2.20;;;29.80;61.60;;;;;;5114565;28;20489;-49
2021/09/08 10:47:07;;;;;;;3.15;1.92;;;29.70;61.50;;;;;;5100375;28;20051;-46
2021/09/08 10:49:41;;;;;;;10.07;3.05;;;29.90;61.40;;;;;;5096309;28;20050;-52
2021/09/08 10:52:35;;;;;;;4.88;3.03;;;30.00;61.40;;;;;;5079435;28;20051;-47
2021/09/08 10:55:03;;;;;;;4.50;2.60;;;29.90;61.40;;;;;;5107162;28;20047;-47
2021/09/08 10:57:49;;;;;;;4.57;2.35;;;29.80;61.40;;;;;;5114293;28;20532;-53
2021/09/08 11:00:20;;;;;;;;;;;29.80;62.20;;;;;;5113650;28;20451;-52
2021/09/08 11:02:49;;;;;;;4.47;2.30;;;29.50;62.90;;;;;;5111987;28;19930;-48
2021/09/08 11:05:17;;;;;;;3.97;2.42;;;29.30;63.60;;;;;;5112977;28;20527;-49
2021/09/08 11:07:48;;;;;;;3.70;2.20;;;29.00;63.70;;;;;;5096327;28;20116;-52
2021/09/08 11:10:31;;;;;;;3.67;2.40;;;28.70;63.80;;;;;;5093646;28;20056;-49
2021/09/08 11:13:02;;;;;;;2.95;1.90;;;28.40;63.80;;;;;;5103318;28;20058;-49
2021/09/08 11:15:35;;;;;;;6.00;2.75;;;28.10;64.30;;;;;;5112684;28;20562;-48
2021/09/08 11:18:08;;;;;;;4.53;2.20;;;27.90;65.00;;;;;;5112792;28;20071;-51
2021/09/08 11:20:36;;;;;;;3.63;2.13;;;27.70;66.30;;;;;;5112241;28;20512;-50
2021/09/08 11:23:05;;;;;;;3.03;2.17;;;27.70;66.80;;;;;;5112051;28;20400;-52
2021/09/08 11:25:38;;;;;;;4.32;2.22;;;27.60;66.90;;;;;;5095938;28;20097;-51
2021/09/08 11:28:09;;;;;;;7.82;2.47;;;27.70;67.40;;;;;;5112430;28;20493;-50
2021/09/08 11:30:42;;;;;;;3.83;2.35;;;27.90;67.10;;;;;;5101520;28;20043;-47
2021/09/08 11:33:15;;;;;;;4.60;2.42;;;28.20;66.40;;;;;;5112762;28;20044;-47
2021/09/08 11:35:51;;;;;;;4.18;2.25;;;28.50;66.80;;;;;;5078708;28;20036;-46
2021/09/08 11:38:23;;;;;;;3.33;2.13;;;28.50;66.40;;;;;;5113761;28;20075;-47
2021/09/08 11:40:57;;;;;;;3.65;2.58;;;28.50;66.50;;;;;;5112735;28;20047;-53
2021/09/08 11:43:34;;;;;;;5.00;2.92;;;28.50;68.00;;;;;;5113894;28;20040;-46
2021/09/08 11:46:32;;;;;;;4.55;2.67;;;28.40;66.50;;;;;;5094453;28;20051;-47
2021/09/08 11:49:08;;;;;;;4.97;3.15;;;28.20;68.50;;;;;;5063467;28;20051;-47
2021/09/08 11:51:38;;;;;;;5.10;2.50;;;28.10;68.20;;;;;;5110414;28;20054;-47
2021/09/08 11:54:13;;;;;;;4.60;2.22;;;28.00;68.20;;;;;;5078416;28;20043;-47
2021/09/08 11:56:41;;;;;;;4.78;2.60;;;27.80;68.80;;;;;;5095682;28;20040;-47
2021/09/08 11:59:09;;;;;;;6.38;2.60;;;27.70;69.20;;;;;;5112560;28;20390;-46
2021/09/08 12:01:41;;;;;;;5.63;2.67;;;27.60;69.70;;;;;;5112482;28;20517;-49
2021/09/08 12:04:10;;;;;;;4.32;2.58;;;27.50;69.90;;;;;;5112401;28;20108;-47
2021/09/08 12:07:00;;;;;;;5.05;2.58;;;27.40;70.00;;;;;;5078738;28;20055;-46
2021/09/08 12:09:33;;;;;;;3.00;2.50;;;27.30;69.60;;;;;;5100775;28;20040;-52
2021/09/08 12:12:03;;;;;;;4.88;2.78;;;27.30;69.10;;;;;;5091300;28;20044;-50
2021/09/08 12:14:37;;;;;;;4.55;2.58;;;27.30;69.40;;;;;;5088998;28;20040;-46
2021/09/08 12:17:12;;;;;;;4.05;2.42;;;27.30;68.90;;;;;;5095805;28;20081;-48
2021/09/08 12:19:53;;;;;;;3.30;2.13;;;27.30;69.40;;;;;;5108367;28;20393;-52
2021/09/08 12:22:23;;;;;;;5.32;2.53;;;27.20;70.20;;;;;;5098301;28;20394;-48
2021/09/08 12:24:52;;;;;;;6.13;2.42;;;27.10;70.10;;;;;;5090848;28;20524;-47
2021/09/08 12:27:29;;;;;;;4.50;2.30;;;27.10;70.00;;;;;;5082996;28;20121;-46
2021/09/08 12:30:15;;;;;;;4.70;2.58;;;27.00;69.40;;;;;;5073827;28;20048;-47
2021/09/08 12:33:07;;;;;;;3.70;1.95;;;27.00;68.60;;;;;;5094891;28;20051;-46
2021/09/08 12:35:40;;;;;;;3.63;2.28;;;27.10;67.80;;;;;;5093161;28;20036;-46
2021/09/08 12:38:34;;;;;;;5.57;2.20;;;27.00;66.90;;;;;;5092983;28;20040;-47
2021/09/08 12:41:18;;;;;;;3.70;2.30;;;26.90;67.30;;;;;;5077078;28;20506;-46
2021/09/08 12:43:56;;;;;;;5.65;2.90;;;26.80;67.00;;;;;;5094438;28;20075;-47
2021/09/08 12:46:39;;;;;;;4.40;2.13;;;26.70;66.80;;;;;;5089808;28;20044;-47
2021/09/08 12:49:09;;;;;;;3.95;2.42;;;26.70;66.80;;;;;;5089846;28;20054;-47
2021/09/08 12:51:37;;;;;;;3.85;2.33;;;26.70;66.70;;;;;;5069486;28;20049;-47
2021/09/08 12:54:09;;;;;;;5.10;2.47;;;26.70;66.70;;;;;;5093265;28;20052;-47
2021/09/08 12:56:38;;;;;;;5.65;2.20;;;26.80;66.80;;;;;;5093138;28;20075;-45
2021/09/08 12:59:06;;;;;;;3.28;2.13;;;26.80;66.40;;;;;;5073050;28;20130;-47